createdAt,value
2022-09-21T00:02:05.710Z,3.13
2022-09-21T00:04:33.119Z,2.92
2022-09-21T00:07:00.455Z,3.05
2022-09-21T00:09:27.828Z,2.88
2022-09-21T00:11:58.354Z,3.30
2022-09-21T00:14:25.827Z,3.45
2022-09-21T00:16:53.510Z,2.92
2022-09-21T00:19:20.916Z,3.33
2022-09-21T00:21:48.901Z,3.17
2022-09-21T00:24:16.286Z,3.15
2022-09-21T00:26:43.641Z,3.30
2022-09-21T00:29:13.936Z,3.15
2022-09-21T00:31:41.287Z,2.75
2022-09-21T00:34:08.748Z,3.20
2022-09-21T00:36:36.350Z,3.20
2022-09-21T00:39:04.319Z,3.28
2022-09-21T00:41:32.668Z,2.78
2022-09-21T00:44:18.924Z,3.00
2022-09-21T00:46:48.946Z,2.97
2022-09-21T00:49:16.714Z,2.70
2022-09-21T00:51:44.354Z,3.15
2022-09-21T00:54:15.098Z,3.20
2022-09-21T00:56:43.007Z,3.50
2022-09-21T00:59:10.761Z,3.50
2022-09-21T01:01:38.421Z,3.63
2022-09-21T01:04:08.650Z,3.55
2022-09-21T01:06:37.927Z,3.67
2022-09-21T01:09:05.758Z,3.70
2022-09-21T01:11:35.338Z,4.25
2022-09-21T01:14:09.500Z,3.78
2022-09-21T01:16:39.658Z,3.25
2022-09-21T01:19:15.471Z,3.50
2022-09-21T01:21:48.744Z,3.80
2022-09-21T01:24:21.099Z,3.25
2022-09-21T01:26:54.235Z,3.10
2022-09-21T01:29:23.960Z,3.17
2022-09-21T01:31:55.090Z,2.83
2022-09-21T01:34:26.739Z,3.03
2022-09-21T01:36:55.691Z,3.13
2022-09-21T01:39:24.280Z,3.10
2022-09-21T01:41:53.183Z,3.05
2022-09-21T01:44:21.823Z,3.03
2022-09-21T01:46:51.065Z,3.22
2022-09-21T01:49:20.278Z,3.47
2022-09-21T01:51:51.455Z,3.70
2022-09-21T01:56:51.760Z,3.88
2022-09-21T01:59:23.054Z,3.35
2022-09-21T02:01:53.078Z,3.28
2022-09-21T02:04:20.735Z,3.20
2022-09-21T02:06:48.675Z,3.17
2022-09-21T02:09:16.033Z,3.10
2022-09-21T02:11:43.831Z,3.80
2022-09-21T02:14:12.578Z,3.90
2022-09-21T02:16:40.907Z,3.33
2022-09-21T02:19:12.725Z,3.70
2022-09-21T02:21:45.040Z,3.42
2022-09-21T02:24:14.795Z,3.30
2022-09-21T02:26:47.031Z,3.47
2022-09-21T02:29:18.839Z,3.17
2022-09-21T02:31:50.291Z,3.38
2022-09-21T02:34:20.987Z,2.78
2022-09-21T02:36:50.290Z,3.10
2022-09-21T02:39:18.951Z,3.20
2022-09-21T02:41:51.899Z,3.05
2022-09-21T02:44:22.516Z,3.10
2022-09-21T02:46:51.479Z,2.92
2022-09-21T02:49:22.614Z,3.03
2022-09-21T02:51:51.495Z,3.03
2022-09-21T02:54:21.303Z,2.70
2022-09-21T02:56:51.078Z,2.70
2022-09-21T02:59:18.550Z,3.03
2022-09-21T03:01:45.975Z,2.90
2022-09-21T03:04:13.333Z,3.10
2022-09-21T03:06:42.333Z,3.22
2022-09-21T03:09:09.887Z,3.38
2022-09-21T03:11:38.139Z,3.17
2022-09-21T03:14:08.440Z,2.97
2022-09-21T03:16:35.864Z,3.53
2022-09-21T03:19:03.264Z,3.55
2022-09-21T03:21:30.823Z,3.78
2022-09-21T03:23:59.621Z,3.05
2022-09-21T03:26:27.009Z,3.53
2022-09-21T03:28:54.503Z,3.08
2022-09-21T03:31:22.309Z,3.22
2022-09-21T03:33:49.783Z,2.95
2022-09-21T03:36:17.300Z,2.90
2022-09-21T03:38:44.878Z,3.47
2022-09-21T03:41:14.007Z,3.22
2022-09-21T03:43:41.607Z,3.50
2022-09-21T03:46:09.025Z,3.60
2022-09-21T03:48:36.407Z,3.33
2022-09-21T03:51:03.834Z,3.13
2022-09-21T03:53:31.138Z,3.05
2022-09-21T03:55:58.638Z,3.22
2022-09-21T03:58:27.346Z,3.53
2022-09-21T04:00:55.295Z,3.33
2022-09-21T04:03:23.690Z,3.60
2022-09-21T04:05:51.114Z,3.50
2022-09-21T04:08:18.591Z,3.65
2022-09-21T04:10:45.936Z,3.92
2022-09-21T04:13:13.526Z,3.78
2022-09-21T04:15:42.276Z,3.83
2022-09-21T04:18:09.764Z,3.90
2022-09-21T04:20:37.126Z,3.92
2022-09-21T04:23:04.501Z,3.67
2022-09-21T04:25:33.433Z,3.50
2022-09-21T04:28:00.833Z,3.72
2022-09-21T04:30:28.187Z,3.75
2022-09-21T04:32:56.976Z,3.63
2022-09-21T04:35:24.309Z,3.60
2022-09-21T04:37:51.667Z,3.50
2022-09-21T04:40:19.077Z,3.30
2022-09-21T04:42:51.351Z,3.70
2022-09-21T04:45:18.750Z,3.50
2022-09-21T04:47:46.244Z,3.40
2022-09-21T04:50:15.008Z,3.35
2022-09-21T04:52:42.671Z,3.40
2022-09-21T04:55:10.192Z,3.42
2022-09-21T04:57:37.529Z,3.92
2022-09-21T05:00:05.676Z,3.47
2022-09-21T05:02:33.265Z,4.00
2022-09-21T05:05:00.657Z,3.70
2022-09-21T05:07:29.359Z,4.13
2022-09-21T05:10:04.698Z,4.15
2022-09-21T05:12:32.623Z,3.33
2022-09-21T05:15:00.171Z,3.53
2022-09-21T05:17:27.862Z,3.92
2022-09-21T05:19:55.524Z,4.45
2022-09-21T05:22:22.976Z,3.83
2022-09-21T05:24:51.705Z,3.50
2022-09-21T05:27:19.067Z,3.78
2022-09-21T05:29:46.655Z,3.85
2022-09-21T05:32:16.017Z,4.45
2022-09-21T05:34:48.317Z,3.67
2022-09-21T05:37:22.347Z,4.15
2022-09-21T05:39:50.042Z,4.30
2022-09-21T05:42:19.198Z,4.53
2022-09-21T05:44:49.270Z,4.40
2022-09-21T05:47:22.992Z,4.38
2022-09-21T05:49:53.562Z,4.50
2022-09-21T05:52:23.671Z,4.78
2022-09-21T05:54:59.792Z,4.18
2022-09-21T05:57:34.506Z,4.80
2022-09-21T06:00:05.212Z,4.25
2022-09-21T06:02:43.933Z,5.03
2022-09-21T06:05:12.307Z,4.68
2022-09-21T06:07:39.651Z,5.00
2022-09-21T06:10:07.678Z,5.68
2022-09-21T06:12:36.393Z,5.32
2022-09-21T06:15:03.816Z,5.47
2022-09-21T06:17:31.231Z,5.15
2022-09-21T06:19:58.622Z,5.55
2022-09-21T06:22:26.002Z,6.07
2022-09-21T06:24:53.390Z,6.07
2022-09-21T06:27:20.778Z,5.82
2022-09-21T06:29:49.498Z,6.68
2022-09-21T06:32:16.850Z,6.07
2022-09-21T06:34:44.188Z,6.15
2022-09-21T06:37:11.568Z,5.93
2022-09-21T06:39:38.962Z,6.47
2022-09-21T06:42:06.505Z,6.03
2022-09-21T06:44:33.856Z,5.78
2022-09-21T06:47:02.584Z,5.15
2022-09-21T06:49:29.984Z,6.90
2022-09-21T06:51:57.422Z,6.28
2022-09-21T06:54:24.839Z,5.93
2022-09-21T06:56:52.181Z,6.60
2022-09-21T06:59:19.927Z,5.28
2022-09-21T07:01:47.352Z,5.63
2022-09-21T07:04:16.099Z,5.63
2022-09-21T07:06:43.493Z,6.47
2022-09-21T07:11:58.431Z,6.88
2022-09-21T07:14:25.787Z,7.72
2022-09-21T07:16:53.687Z,7.15
2022-09-21T07:19:22.707Z,6.97
2022-09-21T07:21:50.093Z,7.82
2022-09-21T07:24:17.438Z,7.28
2022-09-21T07:26:44.822Z,7.65
2022-09-21T07:29:12.171Z,7.57
2022-09-21T07:31:39.607Z,7.03
2022-09-21T07:34:07.032Z,6.38
2022-09-21T07:36:35.772Z,6.40
2022-09-21T07:39:03.452Z,5.97
2022-09-21T07:41:30.804Z,5.85
2022-09-21T07:43:58.152Z,6.47
2022-09-21T07:46:25.518Z,5.80
2022-09-21T07:48:54.213Z,6.50
2022-09-21T07:51:21.543Z,6.50
2022-09-21T07:53:54.714Z,6.65
2022-09-21T07:56:22.057Z,6.07
2022-09-21T07:59:06.633Z,5.53
2022-09-21T08:01:34.760Z,5.97
2022-09-21T08:04:02.514Z,5.65
2022-09-21T08:06:32.883Z,6.38
2022-09-21T08:09:01.764Z,5.82
2022-09-21T08:11:30.184Z,5.10
2022-09-21T08:13:58.259Z,5.30
2022-09-21T08:16:26.989Z,4.88
2022-09-21T08:18:54.450Z,5.50
2022-09-21T08:21:22.464Z,4.93
2022-09-21T08:23:50.004Z,5.07
2022-09-21T08:26:19.935Z,5.03
2022-09-21T08:28:49.767Z,4.95
2022-09-21T08:31:19.282Z,5.15
2022-09-21T08:33:46.778Z,4.80
2022-09-21T08:36:14.103Z,4.55
2022-09-21T08:38:41.450Z,4.60
2022-09-21T08:41:14.782Z,4.60
2022-09-21T08:43:44.298Z,3.97
2022-09-21T08:46:13.973Z,4.00
2022-09-21T08:48:46.007Z,4.63
2022-09-21T08:51:16.129Z,3.38
2022-09-21T08:53:44.699Z,3.83
2022-09-21T08:56:12.198Z,4.00
2022-09-21T08:58:41.170Z,3.45
2022-09-21T09:01:29.640Z,3.10
2022-09-21T09:04:17.883Z,3.60
2022-09-21T09:06:49.054Z,3.00
2022-09-21T09:09:31.341Z,2.70
2022-09-21T09:12:10.985Z,2.92
2022-09-21T09:14:47.667Z,2.67
2022-09-21T09:17:28.149Z,2.63
2022-09-21T09:19:59.759Z,2.58
2022-09-21T09:22:28.709Z,3.05
2022-09-21T09:24:58.768Z,2.78
2022-09-21T09:27:28.983Z,2.35
2022-09-21T09:30:02.862Z,2.50
2022-09-21T09:32:34.847Z,2.70
2022-09-21T09:35:05.829Z,2.70
2022-09-21T09:37:37.724Z,2.97
2022-09-21T09:40:07.673Z,2.50
2022-09-21T09:42:50.085Z,2.20
2022-09-21T09:45:25.917Z,2.00
2022-09-21T09:48:01.069Z,2.05
2022-09-21T09:50:29.430Z,1.95
2022-09-21T09:53:00.807Z,1.98
2022-09-21T09:55:35.971Z,2.50
2022-09-21T09:58:03.571Z,2.20
2022-09-21T10:00:30.985Z,2.33
2022-09-21T10:03:00.009Z,1.85
2022-09-21T10:05:33.509Z,2.00
2022-09-21T10:08:01.247Z,1.42
2022-09-21T10:10:33.603Z,3.70
2022-09-21T10:13:06.452Z,1.70
2022-09-21T10:15:33.925Z,1.75
2022-09-21T10:18:05.135Z,1.98
2022-09-21T10:20:33.018Z,1.23
2022-09-21T10:23:01.318Z,1.30
2022-09-21T10:25:28.797Z,1.08
2022-09-21T10:27:56.680Z,1.02
2022-09-21T10:30:34.829Z,1.00
2022-09-21T10:33:03.750Z,1.00
2022-09-21T10:35:31.126Z,1.55
2022-09-21T10:38:11.143Z,0.90
2022-09-21T10:40:39.145Z,1.10
2022-09-21T10:43:06.545Z,0.80
2022-09-21T10:45:37.030Z,0.90
2022-09-21T10:48:10.453Z,0.98
2022-09-21T10:50:38.547Z,0.90
2022-09-21T10:53:12.688Z,1.23
2022-09-21T10:55:52.612Z,0.68
2022-09-21T10:58:25.821Z,0.80
2022-09-21T11:00:54.212Z,0.70
2022-09-21T11:03:33.592Z,0.80
2022-09-21T11:06:04.686Z,0.80
2022-09-21T11:08:35.040Z,0.77
2022-09-21T11:11:07.494Z,0.70
2022-09-21T11:13:36.631Z,0.60
2022-09-21T11:16:11.134Z,0.80
2022-09-21T11:18:44.633Z,0.70
2022-09-21T11:21:16.443Z,0.75
2022-09-21T11:23:48.054Z,0.50
2022-09-21T11:26:17.935Z,1.23
2022-09-21T11:28:49.199Z,0.50
2022-09-21T11:31:36.584Z,0.50
2022-09-21T11:34:13.359Z,0.60
2022-09-21T11:36:46.043Z,0.50
2022-09-21T11:39:19.960Z,0.45
2022-09-21T11:41:54.527Z,0.50
2022-09-21T11:44:31.049Z,0.40
2022-09-21T11:47:04.814Z,0.50
2022-09-21T11:49:44.582Z,1.52
2022-09-21T11:52:21.105Z,0.63
2022-09-21T11:54:55.512Z,0.50
2022-09-21T11:57:25.250Z,0.50
2022-09-21T12:00:02.103Z,0.52
2022-09-21T12:05:05.081Z,0.47
2022-09-21T12:07:44.392Z,0.50
2022-09-21T12:10:17.855Z,0.68
2022-09-21T12:12:49.515Z,0.50
2022-09-21T12:15:21.451Z,0.52
2022-09-21T12:17:52.483Z,0.60
2022-09-21T12:20:25.834Z,0.60
2022-09-21T12:22:57.477Z,0.90
2022-09-21T12:25:28.175Z,0.70
2022-09-21T12:27:59.330Z,0.80
2022-09-21T12:30:27.097Z,0.70
2022-09-21T12:32:56.376Z,0.63
2022-09-21T12:35:28.847Z,0.75
2022-09-21T12:37:59.657Z,0.60
2022-09-21T12:40:32.921Z,0.65
2022-09-21T12:43:04.294Z,0.50
2022-09-21T12:45:33.942Z,0.50
2022-09-21T12:48:05.398Z,0.68
2022-09-21T12:50:37.493Z,0.43
2022-09-21T12:53:04.981Z,0.57
2022-09-21T12:55:35.587Z,0.60
2022-09-21T12:58:15.598Z,0.73
2022-09-21T13:00:53.814Z,0.40
2022-09-21T13:03:26.459Z,0.60
2022-09-21T13:06:06.555Z,0.50
2022-09-21T13:08:36.547Z,0.47
2022-09-21T13:11:05.630Z,0.40
2022-09-21T13:13:34.600Z,1.40
2022-09-21T13:16:04.188Z,0.52
2022-09-21T13:18:36.277Z,0.60
2022-09-21T13:21:17.787Z,0.55
2022-09-21T13:23:45.423Z,0.70
2022-09-21T13:26:13.994Z,0.60
2022-09-21T13:28:42.605Z,0.70
2022-09-21T13:31:40.036Z,0.60
2022-09-21T13:34:21.245Z,0.60
2022-09-21T13:37:03.483Z,0.70
2022-09-21T13:39:32.193Z,0.60
2022-09-21T13:42:03.215Z,0.60
2022-09-21T13:44:40.291Z,0.75
2022-09-21T13:49:48.512Z,0.57
2022-09-21T13:52:25.811Z,0.70
2022-09-21T13:54:56.903Z,0.60
2022-09-21T13:57:27.048Z,0.50
2022-09-21T14:00:04.247Z,0.50
2022-09-21T14:02:34.912Z,0.40
2022-09-21T14:05:04.955Z,0.60
2022-09-21T14:07:33.519Z,0.55
2022-09-21T14:10:03.510Z,0.60
2022-09-21T14:15:17.251Z,0.75
2022-09-21T14:17:45.185Z,0.70
2022-09-21T14:20:30.835Z,0.70
2022-09-21T14:23:17.018Z,0.63
2022-09-21T14:25:53.195Z,0.50
2022-09-21T14:28:26.514Z,0.63
2022-09-21T14:30:56.441Z,0.47
2022-09-21T14:35:52.960Z,0.30
2022-09-21T14:38:23.676Z,0.40
2022-09-21T14:40:52.828Z,0.50
2022-09-21T14:43:22.340Z,0.57
2022-09-21T14:46:01.707Z,0.57
2022-09-21T14:48:35.352Z,0.50
2022-09-21T14:51:07.206Z,0.60
2022-09-21T14:53:55.758Z,0.60
2022-09-21T14:56:31.398Z,0.70
2022-09-21T14:59:04.394Z,0.60
2022-09-21T15:01:42.074Z,0.70
2022-09-21T15:04:18.893Z,0.60
2022-09-21T15:07:09.303Z,0.50
2022-09-21T15:10:01.724Z,0.55
2022-09-21T15:12:36.854Z,0.60
2022-09-21T15:15:07.086Z,0.77
2022-09-21T15:17:34.495Z,0.80
2022-09-21T15:20:15.224Z,0.70
2022-09-21T15:22:43.969Z,0.57
2022-09-21T15:25:13.355Z,0.70
2022-09-21T15:27:43.445Z,0.60
2022-09-21T15:30:19.492Z,0.63
2022-09-21T15:32:48.310Z,1.00
2022-09-21T15:35:18.885Z,0.70
2022-09-21T15:37:46.691Z,0.90
2022-09-21T15:40:18.255Z,0.70
2022-09-21T15:43:01.330Z,0.80
2022-09-21T15:45:33.793Z,0.80
2022-09-21T15:48:02.002Z,0.73
2022-09-21T15:50:30.090Z,0.80
2022-09-21T15:53:00.057Z,0.70
2022-09-21T15:57:57.202Z,1.50
2022-09-21T16:00:25.497Z,1.63
2022-09-21T16:03:05.342Z,1.20
2022-09-21T16:05:44.778Z,0.85
2022-09-21T16:08:33.454Z,0.82
2022-09-21T16:11:15.182Z,1.10
2022-09-21T16:14:00.869Z,1.05
2022-09-21T16:16:28.311Z,1.00
2022-09-21T16:18:59.895Z,0.98
2022-09-21T16:21:28.521Z,0.70
2022-09-21T16:23:57.289Z,0.80
2022-09-21T16:26:25.990Z,0.90
2022-09-21T16:29:16.759Z,1.20
2022-09-21T16:31:49.698Z,1.13
2022-09-21T16:34:33.039Z,2.13
2022-09-21T16:37:02.208Z,2.30
2022-09-21T16:39:29.624Z,2.58
2022-09-21T16:42:00.059Z,2.03
2022-09-21T16:44:36.715Z,1.67
2022-09-21T16:47:04.538Z,1.70
2022-09-21T16:49:35.575Z,1.50
2022-09-21T16:52:03.199Z,1.50
2022-09-21T16:54:30.946Z,1.30
2022-09-21T16:56:59.746Z,1.13
2022-09-21T16:59:27.599Z,1.30
2022-09-21T17:01:56.710Z,1.10
2022-09-21T17:04:25.355Z,1.30
2022-09-21T17:06:55.077Z,1.40
2022-09-21T17:09:28.971Z,1.55
2022-09-21T17:11:59.230Z,1.80
2022-09-21T17:14:26.667Z,1.88
2022-09-21T17:16:55.026Z,2.17
2022-09-21T17:19:22.741Z,2.20
2022-09-21T17:21:50.445Z,1.85
2022-09-21T17:24:38.973Z,1.85
2022-09-21T17:27:06.647Z,2.20
2022-09-21T17:29:37.103Z,2.00
2022-09-21T17:32:06.098Z,2.17
2022-09-21T17:34:34.115Z,2.45
2022-09-21T17:37:01.526Z,2.55
2022-09-21T17:39:30.355Z,2.75
2022-09-21T17:41:58.553Z,2.38
2022-09-21T17:44:34.606Z,2.60
2022-09-21T17:47:05.055Z,1.80
2022-09-21T17:49:32.628Z,2.13
2022-09-21T17:52:29.415Z,2.33
2022-09-21T17:55:01.272Z,1.90
2022-09-21T17:57:40.385Z,2.08
2022-09-21T18:00:12.889Z,1.80
2022-09-21T18:02:40.523Z,1.75
2022-09-21T18:05:15.031Z,1.98
2022-09-21T18:07:42.667Z,2.00
2022-09-21T18:10:14.086Z,2.33
2022-09-21T18:12:53.801Z,2.20
2022-09-21T18:15:23.235Z,2.30
2022-09-21T18:17:55.943Z,2.08
2022-09-21T18:20:28.695Z,1.92
2022-09-21T18:22:59.322Z,2.03
2022-09-21T18:25:30.278Z,2.20
2022-09-21T18:27:58.729Z,1.90
2022-09-21T18:30:26.152Z,2.17
2022-09-21T18:32:58.363Z,2.85
2022-09-21T18:35:30.993Z,5.90
2022-09-21T18:38:03.773Z,3.35
2022-09-21T18:40:35.663Z,3.60
2022-09-21T18:43:07.111Z,3.85
2022-09-21T18:45:37.129Z,3.65
2022-09-21T18:48:09.591Z,2.97
2022-09-21T18:50:39.932Z,4.45
2022-09-21T18:53:11.544Z,4.45
2022-09-21T18:55:41.113Z,4.55
2022-09-21T18:58:10.904Z,5.28
2022-09-21T19:00:38.599Z,5.47
2022-09-21T19:03:23.312Z,5.32
2022-09-21T19:05:57.083Z,5.38
2022-09-21T19:08:26.576Z,4.75
2022-09-21T19:10:59.727Z,4.90
2022-09-21T19:13:32.567Z,5.65
2022-09-21T19:16:03.340Z,4.55
2022-09-21T19:18:37.663Z,4.30
2022-09-21T19:21:09.742Z,3.85
2022-09-21T19:23:43.306Z,3.75
2022-09-21T19:26:15.905Z,3.58
2022-09-21T19:28:55.434Z,3.28
2022-09-21T19:31:23.092Z,4.30
2022-09-21T19:33:51.528Z,3.58
2022-09-21T19:36:20.936Z,4.03
2022-09-21T19:38:48.474Z,3.15
2022-09-21T19:41:27.036Z,2.97
2022-09-21T19:43:57.172Z,3.75
2022-09-21T19:46:34.004Z,3.42
2022-09-21T19:49:05.663Z,3.97
2022-09-21T19:51:42.367Z,3.40
2022-09-21T19:54:29.879Z,4.22
2022-09-21T19:57:16.350Z,4.22
2022-09-21T19:59:44.119Z,3.70
2022-09-21T20:02:12.909Z,3.88
2022-09-21T20:04:44.466Z,4.20
2022-09-21T20:07:18.445Z,4.00
2022-09-21T20:09:49.691Z,4.28
2022-09-21T20:12:22.618Z,5.55
2022-09-21T20:14:51.741Z,4.72
2022-09-21T20:17:22.157Z,5.45
2022-09-21T20:19:52.946Z,4.88
2022-09-21T20:22:28.609Z,5.80
2022-09-21T20:24:59.018Z,6.10
2022-09-21T20:27:30.479Z,6.10
2022-09-21T20:29:57.847Z,6.45
2022-09-21T20:32:25.404Z,7.18
2022-09-21T20:34:52.750Z,6.25
2022-09-21T20:37:21.000Z,6.68
2022-09-21T20:39:48.406Z,7.63
2022-09-21T20:42:18.269Z,8.18
2022-09-21T20:44:46.960Z,7.80
2022-09-21T20:47:14.311Z,8.13
2022-09-21T20:49:41.693Z,8.50
2022-09-21T20:52:11.161Z,8.07
2022-09-21T20:54:38.516Z,8.15
2022-09-21T20:57:05.927Z,7.70
2022-09-21T20:59:33.235Z,7.57
2022-09-21T21:02:01.939Z,7.82
2022-09-21T21:04:29.632Z,8.55
2022-09-21T21:06:57.052Z,7.95
2022-09-21T21:09:25.277Z,7.82
2022-09-21T21:11:52.911Z,7.00
2022-09-21T21:14:20.271Z,7.28
2022-09-21T21:16:47.874Z,7.53
2022-09-21T21:19:17.069Z,7.43
2022-09-21T21:21:44.642Z,7.68
2022-09-21T21:24:29.529Z,7.25
2022-09-21T21:27:02.335Z,7.93
2022-09-21T21:29:30.518Z,9.27
2022-09-21T21:31:59.490Z,8.32
2022-09-21T21:34:28.230Z,7.85
2022-09-21T21:36:55.975Z,7.80
2022-09-21T21:39:23.383Z,7.13
2022-09-21T21:41:50.718Z,7.85
2022-09-21T21:44:18.083Z,7.80
2022-09-21T21:46:45.426Z,7.35
2022-09-21T21:49:13.215Z,7.28
2022-09-21T21:51:41.894Z,6.97
2022-09-21T21:54:09.440Z,7.13
2022-09-21T21:56:36.834Z,7.43
2022-09-21T21:59:04.354Z,7.07
2022-09-21T22:01:31.836Z,6.72
2022-09-21T22:04:00.403Z,6.15
2022-09-21T22:06:28.695Z,6.65
2022-09-21T22:08:57.718Z,8.00
2022-09-21T22:11:26.520Z,6.65
2022-09-21T22:13:54.914Z,5.63
2022-09-21T22:16:23.165Z,4.95
2022-09-21T22:18:51.123Z,5.45
2022-09-21T22:21:21.469Z,4.93
2022-09-21T22:23:52.515Z,6.55
2022-09-21T22:28:49.397Z,6.25
2022-09-21T22:31:17.984Z,5.45
2022-09-21T22:33:45.912Z,5.60
2022-09-21T22:36:13.923Z,5.63
2022-09-21T22:38:43.083Z,5.53
2022-09-21T22:41:11.677Z,5.50
2022-09-21T22:43:39.087Z,5.50
2022-09-21T22:46:07.982Z,5.63
2022-09-21T22:48:36.051Z,5.88
2022-09-21T22:51:04.134Z,5.88
2022-09-21T22:53:32.003Z,5.97
2022-09-21T22:56:03.730Z,5.47
2022-09-21T22:58:31.208Z,4.85
2022-09-21T23:01:10.367Z,5.22
2022-09-21T23:03:38.421Z,6.15
2022-09-21T23:06:06.374Z,5.30
2022-09-21T23:08:33.970Z,5.13
2022-09-21T23:11:08.546Z,5.25
2022-09-21T23:13:35.899Z,5.63
2022-09-21T23:16:04.059Z,4.72
2022-09-21T23:18:32.995Z,3.75
2022-09-21T23:21:01.010Z,3.30
2022-09-21T23:23:28.751Z,3.80
2022-09-21T23:26:02.691Z,4.53
2022-09-21T23:28:30.099Z,3.38
2022-09-21T23:30:58.161Z,3.92
2022-09-21T23:33:25.540Z,3.08
2022-09-21T23:35:54.238Z,4.20
2022-09-21T23:38:21.622Z,3.45
2022-09-21T23:40:48.974Z,3.60
2022-09-21T23:43:16.359Z,3.22
2022-09-21T23:45:43.735Z,4.32
2022-09-21T23:48:11.080Z,3.13
2022-09-21T23:50:38.450Z,3.42
2022-09-21T23:53:07.118Z,3.88
2022-09-21T23:55:34.491Z,3.50
2022-09-21T23:58:01.830Z,3.47
